Aviation Digital Data Service (ADDS)

Output produced by METARs form (2041 UTC 21 July 2017)
found at http://www.aviationweather.gov/adds/metars/
 
TAF COR SGAS 211630Z 2118/2218 VRB04KT CAVOK TX25/2119Z TN09/2210Z 
     BECMG 2123/2203 VRB04KT 6000 NSC 
     BECMG 2208/2211 5000 BR NSC 
     BECMG 2213/2215 07008KT CAVOK
       
TAF SGES 211620Z 2118/2218 VRB05KT CAVOK TX24/2119Z TN08/2209Z 
     BECMG 2206/2208 VRB03KT 6000 NSC 
     PROB40 2209/22112 3000 BR NSC 
     BECMG 2214/2216 07008KT CAVOK
       
TAF SGCO 211620Z 2118/2218 12005KT CAVOK TX26/2119Z TN08/2210Z 
     BECMG 2120/2122 VRB05KT CAVOK 
     BECMG 2212/2215 07010KT CAVOK